This is the latest recevied weather packets stored in our database for station/object HG8GL-6. If no packets are shown the sender has not sent any weather packets the latest 10 day(s).
| Time | Temp. | Humidity | Pressure | Rain* | Wind** | Luminosity | Snow |
|---|---|---|---|---|---|---|---|
| 1777846630 | 11.67° C | 46% | 1019 hPa | 0 mm | - | - | - |
| 1777844170 | 11.11° C | 46% | 1019 hPa | 0 mm | - | - | - |
| 1777843540 | 11.67° C | 46% | 1019.1 hPa | 0 mm | - | - | - |
| 1777839790 | 11.67° C | 45% | 1019 hPa | 0 mm | - | - | - |
| 1777839190 | 12.22° C | 44% | 1019 hPa | 0 mm | - | - | - |
| 1777836674 | 13.33° C | 42% | 1019 hPa | 0 mm | - | - | - |
| 1777835440 | 13.89° C | 40% | 1019 hPa | 0 mm | - | - | - |
| 1777834840 | 14.44° C | 39% | 1019 hPa | 0 mm | - | - | - |
| 1777832350 | 16.67° C | 35% | 1018 hPa | 0 mm | - | - | - |
| 1777831720 | 17.22° C | 34% | 1018 hPa | 0 mm | - | - | - |
| 1777831120 | 17.78° C | 34% | 1018 hPa | 0 mm | - | - | - |
| 1777828630 | 20° C | 32% | 1018 hPa | 0 mm | - | - | - |
| 1777828000 | 20.56° C | 30% | 1017 hPa | 0 mm | - | - | - |
| 1777827370 | 20.56° C | 30% | 1017 hPa | 0 mm | - | - | - |
| 1777825480 | 21.67° C | 28% | 1018 hPa | 0 mm | - | - | - |
| 1777819899 | 22.78° C | 27% | 1019 hPa | 0 mm | - | - | - |
| 1777818669 | 23.33° C | 28% | 1019 hPa | 0 mm | - | - | - |
| 1777817439 | 23.33° C | 28% | 1019.1 hPa | 0 mm | - | - | - |
| 1777814319 | 23.33° C | 29% | 1020 hPa | 0 mm | - | - | - |
| 1777813119 | 22.78° C | 31% | 1020 hPa | 0 mm | - | - | - |
| 1777811259 | 22.78° C | 31% | 1020 hPa | 0 mm | - | - | - |
| 1777810629 | 22.78° C | 32% | 1020 hPa | 0 mm | - | - | - |
| 1777810029 | 22.78° C | 32% | 1021 hPa | 0 mm | - | - | - |
| 1777807539 | 21.67° C | 32% | 1021 hPa | 0 mm | - | - | - |
| 1777804449 | 21.11° C | 33% | 1022 hPa | 0 mm | - | - | - |
* Rain latest hour (hover to see other rain measurements)
** Current wind speed in m/s (hover to see current wind gust speed)